Time;durP1;ratioP1;P1;durP2;ratioP2;P2;SDS_P1;SDS_P2;PMS_P1;PMS_P2;Temp;Humidity;BMP_temperature;BMP_pressure;BME280_temperature;BME280_humidity;BME280_pressure;Samples;Min_cycle;Max_cycle;Signal;HPM_P1;HPM_P2
2023/05/22 00:01:05;;;;;;;2.20;1.30;;;21.60;70.30;;;;;;5085369;28;20051;-72
2023/05/22 00:03:33;;;;;;;3.67;2.60;;;21.60;70.30;;;;;;5084622;28;20048;-73
2023/05/22 00:06:01;;;;;;;2.97;1.98;;;21.60;70.30;;;;;;5087927;28;20055;-74
2023/05/22 00:08:28;;;;;;;2.83;1.42;;;21.60;70.40;;;;;;5084753;28;20504;-73
2023/05/22 00:10:55;;;;;;;2.97;2.08;;;21.60;70.40;;;;;;5086614;28;20404;-73
2023/05/22 00:13:22;;;;;;;3.55;2.08;;;21.60;70.40;;;;;;5082798;28;20051;-73
2023/05/22 00:15:49;;;;;;;3.03;2.20;;;21.60;70.40;;;;;;5090447;28;20075;-73
2023/05/22 00:18:16;;;;;;;3.42;2.45;;;21.60;70.40;;;;;;5081425;28;20040;-73
2023/05/22 00:20:45;;;;;;;2.50;1.95;;;21.60;70.40;;;;;;5087781;28;20075;-73
2023/05/22 00:23:14;;;;;;;2.38;2.15;;;21.60;70.40;;;;;;5085898;28;20095;-73
2023/05/22 00:25:40;;;;;;;2.83;2.40;;;21.60;71.00;;;;;;5089253;28;20496;-73
2023/05/22 00:28:07;;;;;;;3.22;2.58;;;21.60;70.30;;;;;;5084474;28;20485;-73
2023/05/22 00:30:35;;;;;;;3.20;2.30;;;21.60;70.30;;;;;;5082706;28;20059;-73
2023/05/22 00:33:02;;;;;;;3.67;2.03;;;21.60;70.40;;;;;;5086333;28;20044;-72
2023/05/22 00:35:29;;;;;;;2.90;2.55;;;21.60;70.40;;;;;;5086807;28;20083;-73
2023/05/22 00:37:56;;;;;;;2.75;1.63;;;21.50;70.30;;;;;;5085193;28;20450;-73
2023/05/22 00:40:25;;;;;;;2.83;1.38;;;21.50;70.30;;;;;;5086787;28;20067;-73
2023/05/22 00:42:52;;;;;;;2.80;2.20;;;21.60;70.40;;;;;;5087301;28;20052;-73
2023/05/22 00:45:19;;;;;;;2.70;1.50;;;21.50;70.30;;;;;;5087715;28;20480;-72
2023/05/22 00:47:46;;;;;;;2.35;1.48;;;21.50;70.40;;;;;;5082053;28;20476;-73
2023/05/22 00:50:13;;;;;;;2.60;1.60;;;21.50;70.40;;;;;;5084994;28;20048;-73
2023/05/22 00:52:44;;;;;;;2.92;2.47;;;21.50;70.40;;;;;;5081232;28;20048;-73
2023/05/22 00:55:13;;;;;;;3.25;2.30;;;21.50;70.40;;;;;;5080172;28;20159;-73
2023/05/22 00:57:41;;;;;;;3.25;2.55;;;21.50;70.40;;;;;;5080329;28;20409;-73
2023/05/22 01:00:10;;;;;;;3.35;2.35;;;21.60;70.40;;;;;;5087950;28;20044;-73
2023/05/22 01:02:38;;;;;;;2.42;1.42;;;21.50;70.40;;;;;;5072739;28;20049;-73
2023/05/22 01:05:06;;;;;;;3.13;2.03;;;21.50;70.40;;;;;;5082519;28;20127;-73
2023/05/22 01:07:36;;;;;;;3.55;2.50;;;21.50;70.50;;;;;;5072495;28;20044;-73
2023/05/22 01:10:05;;;;;;;3.20;2.85;;;21.50;70.40;;;;;;5075742;28;20088;-73
2023/05/22 01:12:42;;;;;;;3.25;2.95;;;21.50;70.40;;;;;;5076983;28;20407;-73
2023/05/22 01:15:17;;;;;;;2.13;1.17;;;21.50;70.40;;;;;;5088259;28;20044;-72
2023/05/22 01:17:52;;;;;;;3.60;2.22;;;21.50;70.40;;;;;;5074900;28;20044;-72
2023/05/22 01:20:25;;;;;;;3.17;2.50;;;21.50;70.40;;;;;;5086849;28;20067;-73
2023/05/22 01:23:25;;;;;;;2.80;1.40;;;21.50;70.40;;;;;;5081624;28;20485;-73
2023/05/22 01:26:21;;;;;;;2.75;2.25;;;21.50;70.40;;;;;;5079454;28;20051;-73
2023/05/22 01:29:29;;;;;;;2.75;1.55;;;21.50;70.50;;;;;;5082767;28;20113;-72
2023/05/22 01:32:01;;;;;;;3.70;2.75;;;21.50;70.40;;;;;;5086660;28;20056;-73
2023/05/22 01:34:30;;;;;;;4.60;2.63;;;21.50;70.40;;;;;;5085250;28;20044;-73
2023/05/22 01:36:58;;;;;;;3.30;2.28;;;21.50;70.40;;;;;;5088809;28;20055;-73
2023/05/22 01:39:26;;;;;;;2.72;1.77;;;21.50;70.50;;;;;;5078165;28;20048;-73
2023/05/22 01:41:53;;;;;;;2.67;1.75;;;21.50;70.50;;;;;;5081899;28;20056;-73
2023/05/22 01:44:20;;;;;;;3.78;2.10;;;21.50;70.50;;;;;;5087414;28;20052;-72
2023/05/22 01:46:47;;;;;;;2.97;1.30;;;21.50;70.50;;;;;;5088125;28;20047;-73
2023/05/22 01:49:16;;;;;;;3.00;2.25;;;21.50;70.50;;;;;;5086561;28;20051;-73
2023/05/22 01:51:51;;;;;;;3.15;2.63;;;21.50;70.50;;;;;;5078022;28;20044;-73
2023/05/22 01:54:27;;;;;;;3.03;2.38;;;21.50;70.50;;;;;;5086857;28;20052;-73
2023/05/22 01:56:56;;;;;;;;;;;21.50;70.90;;;;;;5082772;28;20067;-73
2023/05/22 01:59:30;;;;;;;3.13;2.20;;;21.50;71.00;;;;;;5077660;28;19927;-73
2023/05/22 02:02:01;;;;;;;4.25;2.28;;;21.50;70.40;;;;;;5087960;28;20052;-72
2023/05/22 02:04:31;;;;;;;2.70;1.75;;;21.50;70.40;;;;;;5086386;28;20102;-73
2023/05/22 02:07:00;;;;;;;2.33;1.52;;;21.50;70.50;;;;;;5086136;28;20040;-73
2023/05/22 02:09:30;;;;;;;2.80;1.63;;;21.40;70.40;;;;;;5081087;28;20044;-73
2023/05/22 02:11:59;;;;;;;2.90;1.80;;;21.50;70.50;;;;;;5085620;28;20060;-73
2023/05/22 02:14:26;;;;;;;2.70;1.70;;;21.40;70.40;;;;;;5088227;28;20060;-72
2023/05/22 02:16:53;;;;;;;2.50;1.58;;;21.40;70.40;;;;;;5084855;28;20058;-73
2023/05/22 02:19:20;;;;;;;3.70;2.00;;;21.40;70.40;;;;;;5087520;28;20645;-73
2023/05/22 02:21:48;;;;;;;3.00;1.48;;;21.40;70.40;;;;;;5086220;28;20522;-73
2023/05/22 02:24:15;;;;;;;2.83;1.65;;;21.50;70.50;;;;;;5087396;28;20054;-73
2023/05/22 02:26:43;;;;;;;3.10;1.70;;;21.40;70.40;;;;;;5087959;28;20083;-73
2023/05/22 02:29:11;;;;;;;2.50;1.70;;;21.40;70.50;;;;;;5082452;28;20492;-73
2023/05/22 02:31:38;;;;;;;3.05;1.50;;;21.50;70.50;;;;;;5086926;28;20059;-73
2023/05/22 02:34:05;;;;;;;3.00;1.60;;;21.40;70.50;;;;;;5079435;28;20060;-73
2023/05/22 02:36:32;;;;;;;2.58;1.58;;;21.40;70.40;;;;;;5085648;28;20042;-72
2023/05/22 02:39:01;;;;;;;2.83;1.52;;;21.40;70.50;;;;;;5091970;28;20050;-73
2023/05/22 02:41:28;;;;;;;2.97;1.60;;;21.40;70.50;;;;;;5090512;28;20051;-73
2023/05/22 02:43:55;;;;;;;3.42;2.40;;;21.40;70.50;;;;;;5086430;28;20051;-72
2023/05/22 02:46:22;;;;;;;3.45;1.90;;;21.40;70.50;;;;;;5091108;28;20044;-73
2023/05/22 02:48:48;;;;;;;3.10;2.10;;;21.40;70.50;;;;;;5088053;28;20060;-73
2023/05/22 02:51:15;;;;;;;3.65;2.30;;;21.40;70.50;;;;;;5089122;28;20055;-72
2023/05/22 02:53:42;;;;;;;3.65;2.63;;;21.40;70.50;;;;;;5090066;28;20420;-73
2023/05/22 02:56:11;;;;;;;3.90;3.60;;;21.40;70.50;;;;;;5079903;28;20420;-74
2023/05/22 02:58:38;;;;;;;3.90;2.28;;;21.40;70.50;;;;;;5086272;28;20146;-73
2023/05/22 03:01:07;;;;;;;2.80;1.80;;;21.40;70.50;;;;;;5089004;28;20054;-73
2023/05/22 03:03:35;;;;;;;2.97;2.40;;;21.40;70.50;;;;;;5079968;28;20578;-73
2023/05/22 03:06:03;;;;;;;3.35;1.90;;;21.40;70.50;;;;;;5089482;28;20079;-73
2023/05/22 03:08:30;;;;;;;3.13;2.42;;;21.40;71.10;;;;;;5075950;28;20075;-73
2023/05/22 03:10:59;;;;;;;2.78;1.73;;;21.40;70.50;;;;;;5089244;28;20062;-73
2023/05/22 03:13:27;;;;;;;3.58;3.28;;;21.40;70.50;;;;;;5087479;28;20040;-73
2023/05/22 03:15:54;;;;;;;2.50;1.40;;;21.40;70.50;;;;;;5079460;28;20053;-73
2023/05/22 03:18:21;;;;;;;3.30;1.63;;;21.40;70.50;;;;;;5087926;28;20077;-73
2023/05/22 03:20:48;;;;;;;2.80;1.92;;;21.40;70.50;;;;;;5090718;28;20055;-73
2023/05/22 03:23:16;;;;;;;2.92;1.98;;;21.40;70.50;;;;;;5083661;28;20048;-73
2023/05/22 03:25:43;;;;;;;3.53;2.63;;;21.40;70.50;;;;;;5087023;28;20063;-73
2023/05/22 03:28:10;;;;;;;2.65;1.80;;;21.40;70.50;;;;;;5089283;28;20044;-72
2023/05/22 03:30:39;;;;;;;3.20;2.15;;;21.40;70.50;;;;;;5087903;28;20062;-73
2023/05/22 03:33:05;;;;;;;3.08;2.65;;;21.40;70.50;;;;;;5086500;28;20416;-73
2023/05/22 03:35:33;;;;;;;3.60;2.67;;;21.40;70.50;;;;;;5085794;28;20385;-73
2023/05/22 03:38:00;;;;;;;3.22;1.83;;;21.40;70.50;;;;;;5089472;28;20059;-73
2023/05/22 03:40:27;;;;;;;2.55;1.77;;;21.40;70.50;;;;;;5086206;28;20053;-73
2023/05/22 03:42:54;;;;;;;3.60;2.03;;;21.40;70.50;;;;;;5088379;28;20059;-73
2023/05/22 03:45:21;;;;;;;3.25;1.70;;;21.40;70.50;;;;;;5085631;28;20559;-73
2023/05/22 03:47:49;;;;;;;3.08;1.83;;;21.40;70.50;;;;;;5085743;28;20055;-73
2023/05/22 03:50:16;;;;;;;3.50;2.33;;;21.40;70.60;;;;;;5082252;28;20163;-72
2023/05/22 03:52:43;;;;;;;2.88;2.30;;;21.40;70.60;;;;;;5085102;28;20074;-72
2023/05/22 03:55:10;;;;;;;2.53;1.60;;;21.40;70.60;;;;;;5084821;28;20505;-73
2023/05/22 03:57:37;;;;;;;2.40;1.38;;;21.40;70.60;;;;;;5087645;28;20067;-73
2023/05/22 04:00:08;;;;;;;2.65;1.65;;;21.30;70.50;;;;;;5084919;28;20048;-73
2023/05/22 04:02:37;;;;;;;2.63;2.35;;;21.40;70.60;;;;;;5084731;28;20048;-73
2023/05/22 04:05:09;;;;;;;3.22;2.50;;;21.30;70.50;;;;;;5085832;28;20052;-73
2023/05/22 04:07:36;;;;;;;2.70;2.03;;;21.40;70.60;;;;;;5097870;28;20056;-73
2023/05/22 04:10:04;;;;;;;3.97;2.65;;;21.40;70.50;;;;;;5086520;28;20535;-73
2023/05/22 04:12:31;;;;;;;3.17;1.67;;;21.40;70.60;;;;;;5088873;28;20052;-73
2023/05/22 04:14:58;;;;;;;2.50;1.27;;;21.30;70.50;;;;;;5086353;28;20116;-73
2023/05/22 04:17:31;;;;;;;3.22;1.80;;;21.30;70.50;;;;;;5078755;28;20052;-73
2023/05/22 04:19:58;;;;;;;2.75;1.88;;;21.40;70.60;;;;;;5085625;28;20104;-73
2023/05/22 04:22:29;;;;;;;2.97;2.30;;;21.40;70.50;;;;;;5085962;28;20048;-73
2023/05/22 04:24:56;;;;;;;3.47;2.63;;;21.40;70.50;;;;;;5082520;28;20062;-73
2023/05/22 04:27:23;;;;;;;3.33;2.70;;;21.30;70.50;;;;;;5083499;28;20488;-73
2023/05/22 04:29:51;;;;;;;3.20;2.03;;;21.40;70.50;;;;;;5087679;28;20048;-73
2023/05/22 04:32:20;;;;;;;2.90;1.60;;;21.40;70.50;;;;;;5085151;28;20056;-73
2023/05/22 04:34:48;;;;;;;;;;;21.40;70.50;;;;;;5083550;28;20417;-73
2023/05/22 04:37:15;;;;;;;3.38;2.83;;;21.30;70.40;;;;;;5089360;28;19931;-73
2023/05/22 04:39:44;;;;;;;3.35;2.67;;;21.40;70.50;;;;;;5088080;28;20398;-72
2023/05/22 04:42:13;;;;;;;2.85;2.45;;;21.30;70.50;;;;;;5088773;28;20040;-73
2023/05/22 04:44:40;;;;;;;3.50;2.83;;;21.30;70.50;;;;;;5081684;28;20048;-73
2023/05/22 04:47:10;;;;;;;3.22;2.65;;;21.40;70.50;;;;;;5086258;28;20495;-73
2023/05/22 04:49:38;;;;;;;3.00;2.70;;;21.40;70.60;;;;;;5078666;28;20084;-73
2023/05/22 04:52:06;;;;;;;3.30;2.63;;;21.30;70.50;;;;;;5079021;28;20055;-73
2023/05/22 04:54:33;;;;;;;3.13;2.70;;;21.30;70.50;;;;;;5089085;28;20065;-73
2023/05/22 04:57:03;;;;;;;3.28;2.97;;;21.30;70.50;;;;;;5088641;28;20064;-73
2023/05/22 04:59:30;;;;;;;;;;;21.30;70.50;;;;;;5081979;28;20416;-73
2023/05/22 05:01:57;;;;;;;3.38;2.53;;;21.30;70.50;;;;;;5080944;28;20343;-73
2023/05/22 05:04:24;;;;;;;3.42;2.67;;;21.30;70.50;;;;;;5088478;28;20047;-73
2023/05/22 05:06:52;;;;;;;3.95;3.55;;;21.30;70.50;;;;;;5083878;28;20055;-72
2023/05/22 05:09:19;;;;;;;3.47;2.65;;;21.30;70.50;;;;;;5083738;28;20117;-73
2023/05/22 05:11:46;;;;;;;3.10;2.00;;;21.30;70.50;;;;;;5085009;28;20048;-73
2023/05/22 05:14:14;;;;;;;2.80;1.85;;;21.30;70.50;;;;;;5087780;28;20062;-73
2023/05/22 05:16:41;;;;;;;3.85;2.95;;;21.30;70.50;;;;;;5082432;28;20055;-73
2023/05/22 05:19:09;;;;;;;3.95;2.25;;;21.30;70.60;;;;;;5084173;28;20056;-72
2023/05/22 05:21:36;;;;;;;2.38;1.60;;;21.30;70.60;;;;;;5084133;28;20047;-73
2023/05/22 05:24:03;;;;;;;3.13;2.83;;;21.30;70.50;;;;;;5080741;28;20052;-73
2023/05/22 05:26:30;;;;;;;4.18;2.88;;;21.30;70.50;;;;;;5086533;28;20051;-73
2023/05/22 05:28:56;;;;;;;3.03;1.95;;;21.30;70.50;;;;;;5081007;28;20048;-73
2023/05/22 05:31:25;;;;;;;2.97;2.28;;;21.30;71.10;;;;;;5091669;28;20412;-73
2023/05/22 05:33:52;;;;;;;3.33;3.03;;;21.30;71.10;;;;;;5081827;28;20062;-73
2023/05/22 05:36:19;;;;;;;2.78;1.85;;;21.30;70.50;;;;;;5087910;28;20055;-73
2023/05/22 05:38:46;;;;;;;3.03;1.90;;;21.30;70.50;;;;;;5088434;28;20048;-73
2023/05/22 05:41:13;;;;;;;3.00;1.80;;;21.30;70.60;;;;;;5082716;28;20048;-72
2023/05/22 05:43:39;;;;;;;3.10;2.80;;;21.30;70.60;;;;;;5086088;28;20426;-73
2023/05/22 05:46:06;;;;;;;3.30;2.30;;;21.40;70.60;;;;;;5085619;28;20632;-73
2023/05/22 05:48:35;;;;;;;3.53;2.80;;;21.30;70.50;;;;;;5080562;28;20523;-73
2023/05/22 05:51:02;;;;;;;3.85;2.72;;;21.30;70.50;;;;;;5081312;28;20055;-73
2023/05/22 05:53:29;;;;;;;3.70;2.90;;;21.40;70.60;;;;;;5085108;28;20067;-73
2023/05/22 05:55:56;;;;;;;3.58;2.45;;;21.30;70.50;;;;;;5082494;28;20054;-73
2023/05/22 05:58:23;;;;;;;3.42;2.10;;;21.30;70.50;;;;;;5084958;28;20056;-73
2023/05/22 06:00:50;;;;;;;3.05;2.10;;;21.30;70.50;;;;;;5086930;28;20492;-73
2023/05/22 06:03:17;;;;;;;3.85;3.55;;;21.40;70.60;;;;;;5081138;28;20141;-73
2023/05/22 06:05:45;;;;;;;3.50;2.90;;;21.30;70.60;;;;;;5091350;28;20122;-72
2023/05/22 06:08:14;;;;;;;3.35;2.17;;;21.30;70.60;;;;;;5084330;28;20508;-73
2023/05/22 06:10:41;;;;;;;3.05;2.47;;;21.30;70.60;;;;;;5084091;28;20052;-73
2023/05/22 06:13:08;;;;;;;3.05;1.90;;;21.30;70.50;;;;;;5085748;28;20815;-73
2023/05/22 06:15:35;;;;;;;3.80;2.70;;;21.30;71.10;;;;;;5087124;28;20076;-72
2023/05/22 06:18:02;;;;;;;3.40;2.72;;;21.30;70.50;;;;;;5085440;28;20523;-72
2023/05/22 06:20:29;;;;;;;3.70;3.13;;;21.30;70.50;;;;;;5091276;28;20063;-73
2023/05/22 06:22:57;;;;;;;2.85;2.13;;;21.30;70.50;;;;;;5090549;28;20098;-73
2023/05/22 06:25:25;;;;;;;3.05;2.75;;;21.30;71.10;;;;;;5080009;28;20486;-73
2023/05/22 06:27:52;;;;;;;4.13;3.53;;;21.30;70.50;;;;;;5091373;28;20404;-73
2023/05/22 06:30:19;;;;;;;3.08;2.30;;;21.30;70.60;;;;;;5087189;28;20067;-73
2023/05/22 06:32:46;;;;;;;3.38;2.70;;;21.40;70.60;;;;;;5086470;28;20059;-73
2023/05/22 06:35:13;;;;;;;3.08;1.80;;;21.30;70.60;;;;;;5091245;28;20040;-72
2023/05/22 06:37:41;;;;;;;2.95;1.88;;;21.30;70.60;;;;;;5091303;28;20048;-73
2023/05/22 06:40:11;;;;;;;3.10;1.55;;;21.40;70.60;;;;;;5089069;28;20090;-73
2023/05/22 06:42:38;;;;;;;2.50;1.80;;;21.30;70.50;;;;;;5091490;28;20048;-73
2023/05/22 06:45:06;;;;;;;2.78;1.70;;;21.40;70.60;;;;;;5091247;28;20142;-73
2023/05/22 06:47:33;;;;;;;3.53;2.92;;;21.30;70.50;;;;;;5082742;28;20044;-73
2023/05/22 06:50:00;;;;;;;3.67;3.10;;;21.30;70.60;;;;;;5081451;28;20048;-72
2023/05/22 06:52:27;;;;;;;3.15;1.88;;;21.30;70.50;;;;;;5085397;28;20043;-73
2023/05/22 06:54:54;;;;;;;3.67;2.90;;;21.30;70.60;;;;;;5083791;28;20056;-73
2023/05/22 06:57:22;;;;;;;3.00;2.20;;;21.30;70.60;;;;;;5088761;28;20488;-73
2023/05/22 06:59:49;;;;;;;2.88;1.92;;;21.30;70.60;;;;;;5089409;28;20052;-73
2023/05/22 07:02:16;;;;;;;2.55;1.63;;;21.30;70.60;;;;;;5090676;28;20063;-73
2023/05/22 07:04:43;;;;;;;2.85;2.17;;;21.30;70.60;;;;;;5083210;28;20044;-73
2023/05/22 07:07:11;;;;;;;4.25;3.55;;;21.30;70.60;;;;;;5086440;28;20047;-72
2023/05/22 07:09:38;;;;;;;3.50;3.03;;;21.30;70.60;;;;;;5089794;28;20485;-73
2023/05/22 07:12:06;;;;;;;3.03;1.88;;;21.30;70.60;;;;;;5089423;28;20051;-73
2023/05/22 07:14:34;;;;;;;2.80;1.70;;;21.30;71.20;;;;;;5084402;28;20644;-73
2023/05/22 07:17:01;;;;;;;3.40;2.15;;;21.30;70.60;;;;;;5088459;28;20063;-73
2023/05/22 07:19:28;;;;;;;2.40;1.88;;;21.30;70.60;;;;;;5083026;28;20063;-73
2023/05/22 07:21:55;;;;;;;3.25;2.95;;;21.30;70.60;;;;;;5085742;28;20075;-73
2023/05/22 07:24:22;;;;;;;3.00;2.28;;;21.30;70.50;;;;;;5089252;28;20378;-73
2023/05/22 07:26:49;;;;;;;5.40;3.03;;;21.30;70.50;;;;;;5090323;28;20074;-73
2023/05/22 07:29:16;;;;;;;3.20;2.70;;;21.30;70.60;;;;;;5086946;28;20058;-73
2023/05/22 07:31:45;;;;;;;2.83;1.92;;;21.40;70.60;;;;;;5084468;28;20055;-73
2023/05/22 07:34:12;;;;;;;3.05;1.63;;;21.30;70.60;;;;;;5081335;28;20063;-73
2023/05/22 07:36:38;;;;;;;3.38;2.10;;;21.30;70.50;;;;;;5081183;28;20056;-73
2023/05/22 07:39:05;;;;;;;3.08;1.95;;;21.30;70.60;;;;;;5084370;28;20048;-73
2023/05/22 07:41:33;;;;;;;3.45;2.78;;;21.30;70.60;;;;;;5084906;28;20052;-73
2023/05/22 07:44:00;;;;;;;3.30;3.00;;;21.30;70.60;;;;;;5088060;28;20505;-73
2023/05/22 07:46:27;;;;;;;3.08;2.55;;;21.30;70.50;;;;;;5090598;28;20095;-73
2023/05/22 07:48:55;;;;;;;3.25;2.88;;;21.30;70.60;;;;;;5079809;28;20406;-73
2023/05/22 07:51:22;;;;;;;3.53;2.90;;;21.40;70.60;;;;;;5078397;28;20044;-73
2023/05/22 07:53:49;;;;;;;3.22;2.92;;;21.40;70.60;;;;;;5083331;28;20052;-73
2023/05/22 07:56:17;;;;;;;3.15;2.05;;;21.40;70.60;;;;;;5081198;28;20806;-73
2023/05/22 07:58:46;;;;;;;3.30;2.80;;;21.30;70.50;;;;;;5084212;28;20047;-74
2023/05/22 08:01:15;;;;;;;3.22;2.75;;;21.40;70.60;;;;;;5082009;28;20098;-73
2023/05/22 08:03:42;;;;;;;3.40;3.00;;;21.40;70.60;;;;;;5080909;28;20052;-73
2023/05/22 08:06:10;;;;;;;3.03;2.00;;;21.40;70.60;;;;;;5085357;28;20052;-73
2023/05/22 08:08:37;;;;;;;3.25;2.88;;;21.40;70.60;;;;;;5086769;28;20056;-73
2023/05/22 08:11:04;;;;;;;3.22;2.22;;;21.40;70.60;;;;;;5082123;28;20455;-73
2023/05/22 08:13:31;;;;;;;3.25;2.80;;;21.40;70.60;;;;;;5085309;28;20407;-73
2023/05/22 08:15:58;;;;;;;2.75;1.95;;;21.40;70.60;;;;;;5078810;28;20063;-73
2023/05/22 08:18:26;;;;;;;3.40;2.88;;;21.40;70.60;;;;;;5086480;28;20052;-73
2023/05/22 08:20:53;;;;;;;4.00;2.88;;;21.40;70.60;;;;;;5089421;28;20575;-73
2023/05/22 08:23:22;;;;;;;2.75;2.20;;;21.50;70.60;;;;;;5085561;28;20048;-73
2023/05/22 08:25:49;;;;;;;4.03;2.97;;;21.50;70.60;;;;;;5089251;28;20052;-73
2023/05/22 08:28:16;;;;;;;3.00;1.92;;;21.50;70.60;;;;;;5078736;28;20488;-73
2023/05/22 08:30:43;;;;;;;3.50;1.70;;;21.50;70.60;;;;;;5087799;28;20051;-73
2023/05/22 08:33:10;;;;;;;3.35;2.08;;;21.50;70.60;;;;;;5088114;28;20083;-72
2023/05/22 08:35:37;;;;;;;3.53;3.05;;;21.50;71.10;;;;;;5089293;28;20044;-73
2023/05/22 08:38:04;;;;;;;2.92;2.63;;;21.50;70.50;;;;;;5081163;28;20068;-73
2023/05/22 08:40:36;;;;;;;2.85;2.55;;;21.50;70.50;;;;;;5084614;28;20044;-73
2023/05/22 08:43:04;;;;;;;4.10;2.80;;;21.50;70.40;;;;;;5084199;28;20059;-73
2023/05/22 08:45:32;;;;;;;3.45;2.75;;;21.50;70.40;;;;;;5087091;28;20461;-73
2023/05/22 08:48:03;;;;;;;3.65;2.35;;;21.50;70.40;;;;;;5083072;28;20044;-73
2023/05/22 08:50:31;;;;;;;2.97;1.83;;;21.50;70.30;;;;;;5081189;28;20047;-73
2023/05/22 08:53:01;;;;;;;3.03;1.90;;;21.50;70.30;;;;;;5078482;28;20044;-73
2023/05/22 08:55:29;;;;;;;2.97;1.88;;;21.60;70.30;;;;;;5082473;28;20138;-73
2023/05/22 08:57:58;;;;;;;3.20;2.28;;;21.50;70.30;;;;;;5088500;28;20052;-73
2023/05/22 09:00:25;;;;;;;4.22;3.03;;;21.50;70.30;;;;;;5082490;28;20054;-73
2023/05/22 09:02:54;;;;;;;2.67;1.73;;;21.60;70.30;;;;;;5085544;28;20052;-73
2023/05/22 09:05:25;;;;;;;3.47;3.17;;;21.60;70.30;;;;;;5079886;28;20052;-73
2023/05/22 09:07:52;;;;;;;2.90;2.03;;;21.50;70.20;;;;;;5082589;28;20049;-73
2023/05/22 09:10:19;;;;;;;3.40;2.05;;;21.60;70.30;;;;;;5085594;28;20070;-73
2023/05/22 09:13:04;;;;;;;3.45;2.90;;;21.60;70.30;;;;;;5086319;28;20358;-73
2023/05/22 09:15:32;;;;;;;3.50;2.13;;;21.60;70.30;;;;;;5086662;28;20523;-73
2023/05/22 09:17:59;;;;;;;3.40;3.10;;;21.50;70.20;;;;;;5070361;28;20052;-73
2023/05/22 09:20:26;;;;;;;2.97;2.08;;;21.50;70.20;;;;;;5086845;28;20044;-73
2023/05/22 09:22:53;;;;;;;2.47;1.60;;;21.60;70.20;;;;;;5087227;28;20101;-73
2023/05/22 09:25:21;;;;;;;3.60;2.83;;;21.60;70.20;;;;;;5087436;28;20413;-73
2023/05/22 09:27:48;;;;;;;3.05;2.75;;;21.60;70.30;;;;;;5085339;28;20507;-73
2023/05/22 09:30:18;;;;;;;3.33;2.83;;;21.60;70.30;;;;;;5088168;28;20050;-72
2023/05/22 09:32:46;;;;;;;3.53;3.13;;;21.60;70.30;;;;;;5087996;28;20052;-73
2023/05/22 09:35:14;;;;;;;3.97;2.88;;;21.50;70.20;;;;;;5088156;28;20056;-73
2023/05/22 09:37:41;;;;;;;2.80;1.95;;;21.60;70.30;;;;;;5083852;28;20442;-73
2023/05/22 09:40:12;;;;;;;3.72;3.33;;;21.60;70.30;;;;;;5084887;28;20063;-73
2023/05/22 09:42:43;;;;;;;3.88;2.80;;;21.50;70.30;;;;;;5091188;28;20459;-73
2023/05/22 09:45:10;;;;;;;3.25;1.92;;;21.50;70.20;;;;;;5091384;28;20048;-73
2023/05/22 09:47:39;;;;;;;3.08;2.63;;;21.50;70.30;;;;;;5086904;28;20047;-73
2023/05/22 09:50:09;;;;;;;3.15;2.63;;;21.60;70.30;;;;;;5081697;28;20509;-72
2023/05/22 09:52:37;;;;;;;3.95;3.10;;;21.50;70.30;;;;;;5092363;28;20047;-73
2023/05/22 09:55:06;;;;;;;3.58;3.03;;;21.50;70.30;;;;;;5090431;28;20055;-71
2023/05/22 09:57:41;;;;;;;3.40;2.17;;;21.50;70.30;;;;;;5084487;28;20048;-73
2023/05/22 10:00:13;;;;;;;3.17;2.78;;;21.60;70.30;;;;;;5083657;28;20051;-73
2023/05/22 10:02:45;;;;;;;3.00;2.70;;;21.60;70.30;;;;;;5091463;28;20044;-73
2023/05/22 10:05:14;;;;;;;3.45;2.92;;;21.50;70.30;;;;;;5084144;28;20044;-73
2023/05/22 10:07:48;;;;;;;3.65;3.13;;;21.50;70.30;;;;;;5089831;28;20047;-73
2023/05/22 10:10:17;;;;;;;3.58;3.17;;;21.50;70.30;;;;;;5082119;28;20060;-73
2023/05/22 10:12:51;;;;;;;3.90;3.00;;;21.50;70.30;;;;;;5080140;28;20485;-73
2023/05/22 10:15:18;;;;;;;4.13;3.30;;;21.50;70.30;;;;;;5088463;28;20047;-73
2023/05/22 10:17:48;;;;;;;3.33;2.83;;;21.50;70.30;;;;;;5080683;28;20516;-73
2023/05/22 10:20:16;;;;;;;4.03;3.08;;;21.50;70.20;;;;;;5089090;28;20047;-73
2023/05/22 10:22:43;;;;;;;3.60;3.30;;;21.50;70.20;;;;;;5078830;28;20044;-73
2023/05/22 10:25:10;;;;;;;3.08;2.75;;;21.60;70.30;;;;;;5088430;28;20416;-73
2023/05/22 10:27:38;;;;;;;3.28;2.63;;;21.60;70.30;;;;;;5087849;28;20043;-72
2023/05/22 10:30:18;;;;;;;3.38;1.58;;;21.60;70.30;;;;;;5082024;28;20052;-73
2023/05/22 10:32:52;;;;;;;3.00;2.00;;;21.60;70.30;;;;;;5091014;28;20051;-73
2023/05/22 10:35:32;;;;;;;3.42;2.28;;;21.60;70.20;;;;;;5090452;28;20126;-73
2023/05/22 10:38:10;;;;;;;3.90;3.13;;;21.60;70.20;;;;;;5080912;28;20052;-73
2023/05/22 10:40:38;;;;;;;3.80;3.50;;;21.60;70.20;;;;;;5090680;28;20043;-73
2023/05/22 10:43:05;;;;;;;3.42;2.92;;;21.60;70.20;;;;;;5089865;28;20055;-72
2023/05/22 10:45:32;;;;;;;3.13;1.98;;;21.60;70.20;;;;;;5089132;28;20079;-73
2023/05/22 10:48:05;;;;;;;2.88;1.73;;;21.60;70.20;;;;;;5086929;28;20074;-72
2023/05/22 10:50:33;;;;;;;3.33;3.03;;;21.60;70.20;;;;;;5085469;28;20070;-73
2023/05/22 10:53:20;;;;;;;3.63;2.95;;;21.60;70.20;;;;;;5082291;28;20047;-73
2023/05/22 10:55:48;;;;;;;2.72;2.17;;;21.60;70.20;;;;;;5086507;28;20117;-73
2023/05/22 10:58:16;;;;;;;3.13;2.83;;;21.70;70.20;;;;;;5091115;28;20139;-72
2023/05/22 11:00:43;;;;;;;3.42;3.13;;;21.70;70.20;;;;;;5089748;28;20052;-73
2023/05/22 11:03:11;;;;;;;3.40;3.10;;;21.70;70.20;;;;;;5083579;28;20052;-72
2023/05/22 11:05:39;;;;;;;3.05;1.80;;;21.70;70.10;;;;;;5089445;28;20056;-73
2023/05/22 11:08:38;;;;;;;4.05;2.80;;;21.70;70.10;;;;;;5089007;28;20091;-73
2023/05/22 11:11:13;;;;;;;2.85;2.42;;;21.70;70.10;;;;;;5080971;28;20428;-73
2023/05/22 11:13:41;;;;;;;3.42;2.85;;;21.70;70.10;;;;;;5088668;28;20059;-73
2023/05/22 11:16:12;;;;;;;2.85;2.55;;;21.70;70.10;;;;;;5091084;28;20093;-73
2023/05/22 11:18:40;;;;;;;3.42;3.08;;;21.70;70.10;;;;;;5089323;28;20052;-73
2023/05/22 11:21:10;;;;;;;2.28;1.58;;;21.70;70.10;;;;;;5088148;28;20613;-73
2023/05/22 11:23:37;;;;;;;3.53;3.22;;;21.70;70.10;;;;;;5085688;28;20048;-73
2023/05/22 11:26:21;;;;;;;2.63;1.63;;;21.80;70.20;;;;;;5084621;28;20055;-72
2023/05/22 11:28:52;;;;;;;2.67;1.70;;;21.80;70.10;;;;;;5079962;28;20044;-73
2023/05/22 11:31:21;;;;;;;3.70;3.40;;;21.80;70.10;;;;;;5085884;28;20409;-73
2023/05/22 11:33:50;;;;;;;;;;;21.80;70.10;;;;;;5085201;28;20056;-73
2023/05/22 11:36:17;;;;;;;2.72;2.47;;;21.80;70.10;;;;;;5086875;28;19924;-73
2023/05/22 11:38:45;;;;;;;2.92;2.55;;;21.80;70.00;;;;;;5081895;28;20054;-73
2023/05/22 11:41:12;;;;;;;2.90;1.90;;;21.80;70.10;;;;;;5089589;28;20450;-73
2023/05/22 11:43:42;;;;;;;3.78;3.03;;;21.80;70.10;;;;;;5089317;28;20059;-73
2023/05/22 11:46:11;;;;;;;3.17;2.85;;;21.80;70.10;;;;;;5084955;28;20063;-73
2023/05/22 11:48:41;;;;;;;3.08;2.70;;;21.80;70.10;;;;;;5082856;28;20056;-72
2023/05/22 11:51:09;;;;;;;3.03;1.75;;;21.80;70.10;;;;;;5088263;28;20485;-73
2023/05/22 11:53:37;;;;;;;2.90;1.90;;;21.80;70.10;;;;;;5077323;28;20048;-73
2023/05/22 11:56:05;;;;;;;4.03;3.25;;;21.80;70.10;;;;;;5085341;28;20090;-73
2023/05/22 11:58:33;;;;;;;2.92;1.85;;;21.90;70.10;;;;;;5089500;28;20047;-73
2023/05/22 12:01:01;;;;;;;4.40;2.88;;;21.80;70.00;;;;;;5088039;28;20052;-73
2023/05/22 12:03:29;;;;;;;2.60;1.52;;;21.80;70.00;;;;;;5081683;28;20040;-73
2023/05/22 12:05:56;;;;;;;3.13;2.72;;;21.90;70.10;;;;;;5088922;28;20036;-73
2023/05/22 12:08:26;;;;;;;2.80;2.30;;;21.90;70.10;;;;;;5081730;28;20102;-73
2023/05/22 12:10:54;;;;;;;3.20;2.90;;;21.90;70.00;;;;;;5080859;28;20114;-73
2023/05/22 12:13:25;;;;;;;2.72;1.85;;;21.90;70.00;;;;;;5083744;28;20058;-73
2023/05/22 12:15:54;;;;;;;3.25;2.72;;;21.90;70.00;;;;;;5082731;28;20482;-72
2023/05/22 12:18:21;;;;;;;2.97;2.53;;;21.90;70.00;;;;;;5087888;28;20044;-73
2023/05/22 12:20:53;;;;;;;3.63;1.77;;;21.90;70.00;;;;;;5086595;28;20047;-73
2023/05/22 12:23:24;;;;;;;3.47;2.67;;;21.90;70.00;;;;;;5088500;28;20055;-72
2023/05/22 12:26:00;;;;;;;3.22;2.75;;;22.00;70.00;;;;;;5085920;28;20063;-73
2023/05/22 12:28:31;;;;;;;3.45;2.53;;;22.00;70.00;;;;;;5086521;28;20511;-73
2023/05/22 12:30:58;;;;;;;3.47;3.17;;;22.00;70.00;;;;;;5084255;28;20048;-73
2023/05/22 12:33:28;;;;;;;3.50;3.20;;;22.00;69.90;;;;;;5082613;28;20062;-73
2023/05/22 12:35:57;;;;;;;3.47;3.17;;;22.00;69.90;;;;;;5085192;28;20052;-73
2023/05/22 12:38:25;;;;;;;2.75;1.73;;;22.10;69.90;;;;;;5085723;28;20116;-73
2023/05/22 12:40:53;;;;;;;2.75;2.38;;;22.10;70.00;;;;;;5085839;28;20065;-73
2023/05/22 12:43:23;;;;;;;3.10;2.78;;;22.10;69.90;;;;;;5079933;28;20481;-73
2023/05/22 12:45:51;;;;;;;2.97;1.83;;;22.20;70.00;;;;;;5082702;28;20055;-73
2023/05/22 12:48:18;;;;;;;3.17;2.88;;;22.10;69.90;;;;;;5087843;28;20493;-73
2023/05/22 12:50:46;;;;;;;3.15;2.83;;;22.20;69.90;;;;;;5088563;28;20085;-73
2023/05/22 12:53:14;;;;;;;3.10;1.98;;;22.20;69.90;;;;;;5088409;28;20473;-73
2023/05/22 12:55:41;;;;;;;3.35;2.78;;;22.20;69.90;;;;;;5082356;28;20051;-73